sensor_id;sensor_type;location;lat;lon;timestamp;P1;durP1;ratioP1;P2;durP2;ratioP2
40314;SDS011;26021;45.640;11.302;2022-12-18T00:00:27;19.55;;;12.52;;
40314;SDS011;26021;45.640;11.302;2022-12-18T00:02:53;18.17;;;11.98;;
40314;SDS011;26021;45.640;11.302;2022-12-18T00:05:18;16.45;;;10.65;;
40314;SDS011;26021;45.640;11.302;2022-12-18T00:07:44;19.42;;;11.63;;
40314;SDS011;26021;45.640;11.302;2022-12-18T00:10:09;11.70;;;9.07;;
40314;SDS011;26021;45.640;11.302;2022-12-18T00:12:34;10.73;;;8.10;;
40314;SDS011;26021;45.640;11.302;2022-12-18T00:15:00;10.68;;;7.75;;
40314;SDS011;26021;45.640;11.302;2022-12-18T00:17:25;10.80;;;7.88;;
40314;SDS011;26021;45.640;11.302;2022-12-18T00:19:51;12.27;;;8.43;;
40314;SDS011;26021;45.640;11.302;2022-12-18T00:22:16;11.98;;;8.68;;
40314;SDS011;26021;45.640;11.302;2022-12-18T00:24:42;8.98;;;7.75;;
40314;SDS011;26021;45.640;11.302;2022-12-18T00:27:07;10.77;;;8.60;;
40314;SDS011;26021;45.640;11.302;2022-12-18T00:29:33;10.05;;;8.23;;
40314;SDS011;26021;45.640;11.302;2022-12-18T00:31:58;12.13;;;9.20;;
40314;SDS011;26021;45.640;11.302;2022-12-18T00:34:24;13.85;;;10.10;;
40314;SDS011;26021;45.640;11.302;2022-12-18T00:36:49;12.60;;;8.55;;
40314;SDS011;26021;45.640;11.302;2022-12-18T00:39:15;14.05;;;9.73;;
40314;SDS011;26021;45.640;11.302;2022-12-18T00:41:40;11.00;;;8.93;;
40314;SDS011;26021;45.640;11.302;2022-12-18T00:44:24;15.45;;;11.13;;
40314;SDS011;26021;45.640;11.302;2022-12-18T00:46:50;7.20;;;6.43;;
40314;SDS011;26021;45.640;11.302;2022-12-18T00:49:16;10.65;;;7.80;;
40314;SDS011;26021;45.640;11.302;2022-12-18T00:51:43;7.60;;;6.80;;
40314;SDS011;26021;45.640;11.302;2022-12-18T00:54:08;6.47;;;5.78;;
40314;SDS011;26021;45.640;11.302;2022-12-18T00:56:37;9.10;;;7.13;;
40314;SDS011;26021;45.640;11.302;2022-12-18T00:59:03;7.80;;;6.30;;
40314;SDS011;26021;45.640;11.302;2022-12-18T01:01:29;8.05;;;6.70;;
40314;SDS011;26021;45.640;11.302;2022-12-18T01:03:59;10.93;;;8.00;;
40314;SDS011;26021;45.640;11.302;2022-12-18T01:06:26;11.50;;;7.43;;
40314;SDS011;26021;45.640;11.302;2022-12-18T01:08:51;14.13;;;8.13;;
40314;SDS011;26021;45.640;11.302;2022-12-18T01:11:17;9.85;;;7.05;;
40314;SDS011;26021;45.640;11.302;2022-12-18T01:13:44;6.97;;;5.82;;
40314;SDS011;26021;45.640;11.302;2022-12-18T01:16:13;14.32;;;10.70;;
40314;SDS011;26021;45.640;11.302;2022-12-18T01:18:40;10.40;;;8.23;;
40314;SDS011;26021;45.640;11.302;2022-12-18T01:21:07;12.00;;;9.40;;
40314;SDS011;26021;45.640;11.302;2022-12-18T01:23:34;13.80;;;10.05;;
40314;SDS011;26021;45.640;11.302;2022-12-18T01:26:10;13.20;;;8.50;;
40314;SDS011;26021;45.640;11.302;2022-12-18T01:28:37;11.75;;;8.35;;
40314;SDS011;26021;45.640;11.302;2022-12-18T01:31:13;13.75;;;9.82;;
40314;SDS011;26021;45.640;11.302;2022-12-18T01:33:44;12.90;;;9.15;;
40314;SDS011;26021;45.640;11.302;2022-12-18T01:36:43;9.90;;;8.07;;
40314;SDS011;26021;45.640;11.302;2022-12-18T01:39:03;13.27;;;9.18;;
40314;SDS011;26021;45.640;11.302;2022-12-18T01:41:32;8.15;;;7.03;;
40314;SDS011;26021;45.640;11.302;2022-12-18T01:50:15;8.13;;;6.82;;
40314;SDS011;26021;45.640;11.302;2022-12-18T01:52:45;7.00;;;6.30;;
40314;SDS011;26021;45.640;11.302;2022-12-18T01:55:13;10.65;;;7.07;;
40314;SDS011;26021;45.640;11.302;2022-12-18T01:57:41;8.32;;;6.60;;
40314;SDS011;26021;45.640;11.302;2022-12-18T02:00:12;8.05;;;6.88;;
40314;SDS011;26021;45.640;11.302;2022-12-18T02:02:40;8.10;;;7.03;;
40314;SDS011;26021;45.640;11.302;2022-12-18T02:05:07;7.90;;;6.97;;
40314;SDS011;26021;45.640;11.302;2022-12-18T02:10:07;8.73;;;6.60;;
40314;SDS011;26021;45.640;11.302;2022-12-18T02:15:18;10.95;;;6.72;;
40314;SDS011;26021;45.640;11.302;2022-12-18T02:18:11;9.43;;;6.47;;
40314;SDS011;26021;45.640;11.302;2022-12-18T02:20:45;7.57;;;6.18;;
40314;SDS011;26021;45.640;11.302;2022-12-18T02:30:48;6.40;;;5.47;;
40314;SDS011;26021;45.640;11.302;2022-12-18T02:33:15;6.93;;;6.22;;
40314;SDS011;26021;45.640;11.302;2022-12-18T02:35:44;7.65;;;6.35;;
40314;SDS011;26021;45.640;11.302;2022-12-18T02:38:11;7.18;;;6.15;;
40314;SDS011;26021;45.640;11.302;2022-12-18T02:40:37;8.10;;;6.85;;
40314;SDS011;26021;45.640;11.302;2022-12-18T02:43:10;7.35;;;6.30;;
40314;SDS011;26021;45.640;11.302;2022-12-18T02:45:48;6.35;;;5.75;;
40314;SDS011;26021;45.640;11.302;2022-12-18T02:48:17;9.05;;;5.45;;
40314;SDS011;26021;45.640;11.302;2022-12-18T02:50:49;9.50;;;6.05;;
40314;SDS011;26021;45.640;11.302;2022-12-18T02:53:37;7.95;;;6.50;;
40314;SDS011;26021;45.640;11.302;2022-12-18T02:56:13;7.93;;;7.05;;
40314;SDS011;26021;45.640;11.302;2022-12-18T03:01:41;7.88;;;6.00;;
40314;SDS011;26021;45.640;11.302;2022-12-18T03:04:16;6.78;;;5.88;;
40314;SDS011;26021;45.640;11.302;2022-12-18T03:06:50;7.07;;;5.93;;
40314;SDS011;26021;45.640;11.302;2022-12-18T03:09:21;7.20;;;5.57;;
40314;SDS011;26021;45.640;11.302;2022-12-18T03:11:54;8.57;;;6.38;;
40314;SDS011;26021;45.640;11.302;2022-12-18T03:14:43;8.88;;;6.10;;
40314;SDS011;26021;45.640;11.302;2022-12-18T03:17:13;7.18;;;5.93;;
40314;SDS011;26021;45.640;11.302;2022-12-18T03:19:44;7.53;;;5.70;;
40314;SDS011;26021;45.640;11.302;2022-12-18T03:22:12;10.57;;;6.00;;
40314;SDS011;26021;45.640;11.302;2022-12-18T03:24:38;6.28;;;5.68;;
40314;SDS011;26021;45.640;11.302;2022-12-18T03:27:06;8.32;;;6.10;;
40314;SDS011;26021;45.640;11.302;2022-12-18T03:29:35;6.53;;;5.80;;
40314;SDS011;26021;45.640;11.302;2022-12-18T03:32:06;6.45;;;5.40;;
40314;SDS011;26021;45.640;11.302;2022-12-18T03:34:37;7.03;;;6.00;;
40314;SDS011;26021;45.640;11.302;2022-12-18T03:37:05;7.65;;;5.80;;
40314;SDS011;26021;45.640;11.302;2022-12-18T03:39:31;6.70;;;6.00;;
40314;SDS011;26021;45.640;11.302;2022-12-18T03:44:28;7.07;;;6.20;;
40314;SDS011;26021;45.640;11.302;2022-12-18T03:47:01;6.82;;;5.68;;
40314;SDS011;26021;45.640;11.302;2022-12-18T03:49:35;7.30;;;5.78;;
40314;SDS011;26021;45.640;11.302;2022-12-18T03:54:47;6.97;;;6.13;;
40314;SDS011;26021;45.640;11.302;2022-12-18T03:57:31;6.22;;;5.57;;
40314;SDS011;26021;45.640;11.302;2022-12-18T04:00:08;6.38;;;5.63;;
40314;SDS011;26021;45.640;11.302;2022-12-18T04:02:37;6.22;;;5.63;;
40314;SDS011;26021;45.640;11.302;2022-12-18T04:05:07;6.45;;;5.43;;
40314;SDS011;26021;45.640;11.302;2022-12-18T04:07:35;6.45;;;5.68;;
40314;SDS011;26021;45.640;11.302;2022-12-18T04:10:02;7.03;;;5.65;;
40314;SDS011;26021;45.640;11.302;2022-12-18T04:12:29;5.78;;;5.18;;
40314;SDS011;26021;45.640;11.302;2022-12-18T04:14:55;5.88;;;5.22;;
40314;SDS011;26021;45.640;11.302;2022-12-18T04:17:21;6.22;;;5.60;;
40314;SDS011;26021;45.640;11.302;2022-12-18T04:19:47;6.60;;;5.90;;
40314;SDS011;26021;45.640;11.302;2022-12-18T04:22:12;7.15;;;6.05;;
40314;SDS011;26021;45.640;11.302;2022-12-18T04:24:38;12.68;;;9.23;;
40314;SDS011;26021;45.640;11.302;2022-12-18T04:27:03;8.27;;;7.47;;
40314;SDS011;26021;45.640;11.302;2022-12-18T04:29:29;8.02;;;6.45;;
40314;SDS011;26021;45.640;11.302;2022-12-18T04:31:55;18.83;;;12.90;;
40314;SDS011;26021;45.640;11.302;2022-12-18T04:34:20;10.00;;;7.80;;
40314;SDS011;26021;45.640;11.302;2022-12-18T04:36:46;9.18;;;8.13;;
40314;SDS011;26021;45.640;11.302;2022-12-18T04:39:11;9.43;;;7.63;;
40314;SDS011;26021;45.640;11.302;2022-12-18T04:41:37;6.90;;;5.95;;
40314;SDS011;26021;45.640;11.302;2022-12-18T04:44:02;7.22;;;5.90;;
40314;SDS011;26021;45.640;11.302;2022-12-18T04:46:28;6.82;;;5.55;;
40314;SDS011;26021;45.640;11.302;2022-12-18T04:48:53;7.35;;;5.57;;
40314;SDS011;26021;45.640;11.302;2022-12-18T04:51:19;6.88;;;5.72;;
40314;SDS011;26021;45.640;11.302;2022-12-18T04:53:44;6.53;;;5.82;;
40314;SDS011;26021;45.640;11.302;2022-12-18T04:56:11;9.05;;;6.60;;
40314;SDS011;26021;45.640;11.302;2022-12-18T04:58:38;14.25;;;10.40;;
40314;SDS011;26021;45.640;11.302;2022-12-18T05:01:05;13.23;;;9.65;;
40314;SDS011;26021;45.640;11.302;2022-12-18T05:03:35;9.57;;;7.50;;
40314;SDS011;26021;45.640;11.302;2022-12-18T05:06:01;7.32;;;6.35;;
40314;SDS011;26021;45.640;11.302;2022-12-18T05:08:27;7.53;;;6.28;;
40314;SDS011;26021;45.640;11.302;2022-12-18T05:10:59;10.48;;;7.45;;
40314;SDS011;26021;45.640;11.302;2022-12-18T05:13:26;7.80;;;6.45;;
40314;SDS011;26021;45.640;11.302;2022-12-18T05:15:52;5.93;;;5.13;;
40314;SDS011;26021;45.640;11.302;2022-12-18T05:18:18;5.65;;;5.13;;
40314;SDS011;26021;45.640;11.302;2022-12-18T05:20:43;7.68;;;5.05;;
40314;SDS011;26021;45.640;11.302;2022-12-18T05:23:09;5.90;;;5.07;;
40314;SDS011;26021;45.640;11.302;2022-12-18T05:25:34;5.35;;;4.85;;
40314;SDS011;26021;45.640;11.302;2022-12-18T05:28:00;6.10;;;4.65;;
40314;SDS011;26021;45.640;11.302;2022-12-18T05:30:25;5.78;;;5.03;;
40314;SDS011;26021;45.640;11.302;2022-12-18T05:32:51;6.00;;;5.22;;
40314;SDS011;26021;45.640;11.302;2022-12-18T05:35:16;5.53;;;5.03;;
40314;SDS011;26021;45.640;11.302;2022-12-18T05:37:41;8.90;;;5.78;;
40314;SDS011;26021;45.640;11.302;2022-12-18T05:40:07;6.10;;;5.20;;
40314;SDS011;26021;45.640;11.302;2022-12-18T05:42:33;6.63;;;5.88;;
40314;SDS011;26021;45.640;11.302;2022-12-18T05:44:58;5.45;;;4.70;;
40314;SDS011;26021;45.640;11.302;2022-12-18T05:47:24;5.78;;;5.05;;
40314;SDS011;26021;45.640;11.302;2022-12-18T05:49:49;6.00;;;5.30;;
40314;SDS011;26021;45.640;11.302;2022-12-18T05:52:15;6.53;;;5.20;;
40314;SDS011;26021;45.640;11.302;2022-12-18T05:54:40;8.35;;;5.93;;
40314;SDS011;26021;45.640;11.302;2022-12-18T05:57:06;6.45;;;5.30;;
40314;SDS011;26021;45.640;11.302;2022-12-18T05:59:31;9.07;;;6.97;;
40314;SDS011;26021;45.640;11.302;2022-12-18T06:01:57;14.95;;;10.70;;
40314;SDS011;26021;45.640;11.302;2022-12-18T06:04:22;10.18;;;8.68;;
40314;SDS011;26021;45.640;11.302;2022-12-18T06:06:48;10.82;;;8.55;;
40314;SDS011;26021;45.640;11.302;2022-12-18T06:09:13;10.18;;;8.80;;
40314;SDS011;26021;45.640;11.302;2022-12-18T06:11:39;7.97;;;6.78;;
40314;SDS011;26021;45.640;11.302;2022-12-18T06:14:05;7.90;;;6.78;;
40314;SDS011;26021;45.640;11.302;2022-12-18T06:16:34;7.10;;;6.40;;
40314;SDS011;26021;45.640;11.302;2022-12-18T06:19:00;7.30;;;6.28;;
40314;SDS011;26021;45.640;11.302;2022-12-18T06:21:28;8.05;;;6.88;;
40314;SDS011;26021;45.640;11.302;2022-12-18T06:23:54;7.22;;;6.30;;
40314;SDS011;26021;45.640;11.302;2022-12-18T06:26:20;9.02;;;7.28;;
40314;SDS011;26021;45.640;11.302;2022-12-18T06:28:46;8.68;;;7.35;;
40314;SDS011;26021;45.640;11.302;2022-12-18T06:31:11;8.43;;;6.55;;
40314;SDS011;26021;45.640;11.302;2022-12-18T06:33:37;9.88;;;7.97;;
40314;SDS011;26021;45.640;11.302;2022-12-18T06:36:04;7.60;;;6.90;;
40314;SDS011;26021;45.640;11.302;2022-12-18T06:38:33;8.13;;;7.30;;
40314;SDS011;26021;45.640;11.302;2022-12-18T06:40:59;7.90;;;6.72;;
40314;SDS011;26021;45.640;11.302;2022-12-18T06:43:25;7.80;;;7.00;;
40314;SDS011;26021;45.640;11.302;2022-12-18T06:45:50;7.90;;;7.10;;
40314;SDS011;26021;45.640;11.302;2022-12-18T06:48:18;8.13;;;7.03;;
40314;SDS011;26021;45.640;11.302;2022-12-18T06:50:44;7.70;;;6.90;;
40314;SDS011;26021;45.640;11.302;2022-12-18T06:53:10;8.80;;;7.90;;
40314;SDS011;26021;45.640;11.302;2022-12-18T06:55:35;8.07;;;6.90;;
40314;SDS011;26021;45.640;11.302;2022-12-18T06:58:01;9.85;;;7.22;;
40314;SDS011;26021;45.640;11.302;2022-12-18T07:00:26;9.25;;;8.10;;
40314;SDS011;26021;45.640;11.302;2022-12-18T07:02:52;8.50;;;7.50;;
40314;SDS011;26021;45.640;11.302;2022-12-18T07:05:17;8.65;;;7.07;;
40314;SDS011;26021;45.640;11.302;2022-12-18T07:07:43;10.60;;;8.88;;
40314;SDS011;26021;45.640;11.302;2022-12-18T07:10:08;11.73;;;8.82;;
40314;SDS011;26021;45.640;11.302;2022-12-18T07:12:34;10.80;;;8.18;;
40314;SDS011;26021;45.640;11.302;2022-12-18T07:15:00;9.68;;;8.68;;
40314;SDS011;26021;45.640;11.302;2022-12-18T07:17:25;9.00;;;8.07;;
40314;SDS011;26021;45.640;11.302;2022-12-18T07:19:51;9.38;;;8.32;;
40314;SDS011;26021;45.640;11.302;2022-12-18T07:22:16;9.27;;;7.40;;
40314;SDS011;26021;45.640;11.302;2022-12-18T07:24:42;10.70;;;8.88;;
40314;SDS011;26021;45.640;11.302;2022-12-18T07:27:07;9.32;;;7.80;;
40314;SDS011;26021;45.640;11.302;2022-12-18T07:29:33;9.82;;;8.40;;
40314;SDS011;26021;45.640;11.302;2022-12-18T07:31:58;13.38;;;8.65;;
40314;SDS011;26021;45.640;11.302;2022-12-18T07:34:24;13.30;;;9.50;;
40314;SDS011;26021;45.640;11.302;2022-12-18T07:36:49;15.27;;;11.18;;
40314;SDS011;26021;45.640;11.302;2022-12-18T07:39:14;19.92;;;14.13;;
40314;SDS011;26021;45.640;11.302;2022-12-18T07:41:40;26.95;;;20.42;;
40314;SDS011;26021;45.640;11.302;2022-12-18T07:44:11;22.67;;;16.17;;
40314;SDS011;26021;45.640;11.302;2022-12-18T07:46:37;20.30;;;13.82;;
40314;SDS011;26021;45.640;11.302;2022-12-18T07:49:02;21.40;;;15.38;;
40314;SDS011;26021;45.640;11.302;2022-12-18T07:51:28;21.08;;;15.93;;
40314;SDS011;26021;45.640;11.302;2022-12-18T07:53:54;20.73;;;16.00;;
40314;SDS011;26021;45.640;11.302;2022-12-18T07:56:19;20.08;;;15.07;;
40314;SDS011;26021;45.640;11.302;2022-12-18T07:58:48;16.50;;;13.88;;
40314;SDS011;26021;45.640;11.302;2022-12-18T08:01:14;20.13;;;13.43;;
40314;SDS011;26021;45.640;11.302;2022-12-18T08:03:39;16.15;;;12.70;;
40314;SDS011;26021;45.640;11.302;2022-12-18T08:06:06;17.08;;;14.25;;
40314;SDS011;26021;45.640;11.302;2022-12-18T08:08:33;22.27;;;18.38;;
40314;SDS011;26021;45.640;11.302;2022-12-18T08:11:00;15.40;;;13.15;;
40314;SDS011;26021;45.640;11.302;2022-12-18T08:13:26;15.10;;;13.13;;
40314;SDS011;26021;45.640;11.302;2022-12-18T08:15:59;17.38;;;13.93;;
40314;SDS011;26021;45.640;11.302;2022-12-18T08:18:29;17.63;;;15.43;;
40314;SDS011;26021;45.640;11.302;2022-12-18T08:21:07;18.88;;;14.55;;
40314;SDS011;26021;45.640;11.302;2022-12-18T08:23:46;16.17;;;13.50;;
40314;SDS011;26021;45.640;11.302;2022-12-18T08:26:12;16.88;;;12.18;;
40314;SDS011;26021;45.640;11.302;2022-12-18T08:28:38;18.17;;;13.00;;
40314;SDS011;26021;45.640;11.302;2022-12-18T08:31:04;13.18;;;11.70;;
40314;SDS011;26021;45.640;11.302;2022-12-18T08:33:30;15.02;;;12.07;;
40314;SDS011;26021;45.640;11.302;2022-12-18T08:35:55;15.80;;;13.60;;
40314;SDS011;26021;45.640;11.302;2022-12-18T08:38:22;18.15;;;13.48;;
40314;SDS011;26021;45.640;11.302;2022-12-18T08:40:48;25.77;;;17.08;;
40314;SDS011;26021;45.640;11.302;2022-12-18T08:43:13;21.83;;;16.50;;
40314;SDS011;26021;45.640;11.302;2022-12-18T08:45:57;17.55;;;12.75;;
40314;SDS011;26021;45.640;11.302;2022-12-18T08:48:23;18.58;;;14.25;;
40314;SDS011;26021;45.640;11.302;2022-12-18T08:50:58;39.33;;;24.05;;
40314;SDS011;26021;45.640;11.302;2022-12-18T08:53:24;17.92;;;12.73;;
40314;SDS011;26021;45.640;11.302;2022-12-18T08:55:51;21.23;;;16.42;;
40314;SDS011;26021;45.640;11.302;2022-12-18T08:58:17;15.68;;;12.90;;
40314;SDS011;26021;45.640;11.302;2022-12-18T09:00:43;18.58;;;12.75;;
40314;SDS011;26021;45.640;11.302;2022-12-18T09:03:14;15.52;;;12.43;;
40314;SDS011;26021;45.640;11.302;2022-12-18T09:05:41;15.43;;;12.43;;
40314;SDS011;26021;45.640;11.302;2022-12-18T09:08:07;14.00;;;11.80;;
40314;SDS011;26021;45.640;11.302;2022-12-18T09:10:32;12.98;;;11.63;;
40314;SDS011;26021;45.640;11.302;2022-12-18T09:12:58;13.68;;;11.35;;
40314;SDS011;26021;45.640;11.302;2022-12-18T09:15:24;15.55;;;12.90;;
40314;SDS011;26021;45.640;11.302;2022-12-18T09:17:49;17.85;;;14.30;;
40314;SDS011;26021;45.640;11.302;2022-12-18T09:20:15;22.95;;;14.38;;
40314;SDS011;26021;45.640;11.302;2022-12-18T09:22:41;18.20;;;14.13;;
40314;SDS011;26021;45.640;11.302;2022-12-18T09:25:07;17.88;;;13.05;;
40314;SDS011;26021;45.640;11.302;2022-12-18T09:27:33;17.33;;;13.15;;
40314;SDS011;26021;45.640;11.302;2022-12-18T09:29:59;17.00;;;13.23;;
40314;SDS011;26021;45.640;11.302;2022-12-18T09:32:24;17.23;;;13.23;;
40314;SDS011;26021;45.640;11.302;2022-12-18T09:34:50;16.60;;;13.15;;
40314;SDS011;26021;45.640;11.302;2022-12-18T09:37:15;14.25;;;11.90;;
40314;SDS011;26021;45.640;11.302;2022-12-18T09:39:41;17.35;;;13.45;;
40314;SDS011;26021;45.640;11.302;2022-12-18T09:42:06;16.45;;;12.40;;
40314;SDS011;26021;45.640;11.302;2022-12-18T09:44:43;14.15;;;11.13;;
40314;SDS011;26021;45.640;11.302;2022-12-18T09:49:49;17.63;;;12.75;;
40314;SDS011;26021;45.640;11.302;2022-12-18T09:55:08;13.47;;;11.27;;
40314;SDS011;26021;45.640;11.302;2022-12-18T09:58:04;13.68;;;10.73;;
40314;SDS011;26021;45.640;11.302;2022-12-18T10:00:32;11.07;;;9.88;;
40314;SDS011;26021;45.640;11.302;2022-12-18T10:03:11;11.93;;;9.88;;
40314;SDS011;26021;45.640;11.302;2022-12-18T10:10:51;10.55;;;8.80;;
40314;SDS011;26021;45.640;11.302;2022-12-18T10:16:16;12.80;;;10.52;;
40314;SDS011;26021;45.640;11.302;2022-12-18T10:18:55;12.93;;;10.68;;
40314;SDS011;26021;45.640;11.302;2022-12-18T10:21:45;10.95;;;9.20;;
40314;SDS011;26021;45.640;11.302;2022-12-18T10:27:17;12.80;;;9.52;;
40314;SDS011;26021;45.640;11.302;2022-12-18T10:29:46;11.70;;;10.18;;
40314;SDS011;26021;45.640;11.302;2022-12-18T10:32:16;9.48;;;8.38;;
40314;SDS011;26021;45.640;11.302;2022-12-18T10:34:53;9.63;;;8.20;;
40314;SDS011;26021;45.640;11.302;2022-12-18T10:37:22;8.88;;;7.78;;
40314;SDS011;26021;45.640;11.302;2022-12-18T10:42:33;9.93;;;8.07;;
40314;SDS011;26021;45.640;11.302;2022-12-18T10:45:16;8.90;;;7.20;;
40314;SDS011;26021;45.640;11.302;2022-12-18T10:47:45;8.25;;;7.45;;
40314;SDS011;26021;45.640;11.302;2022-12-18T10:50:20;10.48;;;8.02;;
40314;SDS011;26021;45.640;11.302;2022-12-18T10:52:57;10.07;;;7.60;;
40314;SDS011;26021;45.640;11.302;2022-12-18T10:55:27;10.77;;;8.38;;
40314;SDS011;26021;45.640;11.302;2022-12-18T11:06:33;11.77;;;8.23;;
40314;SDS011;26021;45.640;11.302;2022-12-18T11:11:26;12.35;;;8.30;;
40314;SDS011;26021;45.640;11.302;2022-12-18T11:14:05;11.73;;;8.75;;
40314;SDS011;26021;45.640;11.302;2022-12-18T11:16:42;11.15;;;8.30;;
40314;SDS011;26021;45.640;11.302;2022-12-18T11:21:55;12.43;;;9.00;;
40314;SDS011;26021;45.640;11.302;2022-12-18T11:24:24;10.52;;;8.60;;
40314;SDS011;26021;45.640;11.302;2022-12-18T11:26:54;13.43;;;10.57;;
40314;SDS011;26021;45.640;11.302;2022-12-18T11:29:24;14.93;;;11.43;;
40314;SDS011;26021;45.640;11.302;2022-12-18T11:34:39;14.18;;;10.90;;
40314;SDS011;26021;45.640;11.302;2022-12-18T11:37:08;16.92;;;13.93;;
40314;SDS011;26021;45.640;11.302;2022-12-18T11:39:37;14.88;;;12.13;;
40314;SDS011;26021;45.640;11.302;2022-12-18T11:45:00;12.18;;;10.10;;
40314;SDS011;26021;45.640;11.302;2022-12-18T11:52:54;14.55;;;13.05;;
40314;SDS011;26021;45.640;11.302;2022-12-18T11:55:24;12.52;;;10.70;;
40314;SDS011;26021;45.640;11.302;2022-12-18T12:03:57;14.10;;;10.52;;
40314;SDS011;26021;45.640;11.302;2022-12-18T12:17:45;15.32;;;11.82;;
40314;SDS011;26021;45.640;11.302;2022-12-18T12:25:59;12.25;;;10.25;;
40314;SDS011;26021;45.640;11.302;2022-12-18T12:37:22;16.30;;;12.27;;
40314;SDS011;26021;45.640;11.302;2022-12-18T12:40:00;13.93;;;10.95;;
40314;SDS011;26021;45.640;11.302;2022-12-18T12:42:30;15.13;;;11.60;;
40314;SDS011;26021;45.640;11.302;2022-12-18T12:45:17;13.70;;;10.98;;
40314;SDS011;26021;45.640;11.302;2022-12-18T12:47:51;14.43;;;10.98;;
40314;SDS011;26021;45.640;11.302;2022-12-18T12:50:19;14.60;;;11.77;;
40314;SDS011;26021;45.640;11.302;2022-12-18T12:52:50;13.52;;;11.13;;
40314;SDS011;26021;45.640;11.302;2022-12-18T12:55:23;13.70;;;10.60;;
40314;SDS011;26021;45.640;11.302;2022-12-18T13:05:51;20.48;;;16.90;;
40314;SDS011;26021;45.640;11.302;2022-12-18T13:08:24;18.80;;;13.98;;
40314;SDS011;26021;45.640;11.302;2022-12-18T13:10:52;15.00;;;11.18;;
40314;SDS011;26021;45.640;11.302;2022-12-18T13:13:57;16.67;;;12.27;;
40314;SDS011;26021;45.640;11.302;2022-12-18T13:16:23;12.88;;;11.07;;
40314;SDS011;26021;45.640;11.302;2022-12-18T13:18:57;13.25;;;11.52;;
40314;SDS011;26021;45.640;11.302;2022-12-18T13:24:25;13.32;;;10.88;;
40314;SDS011;26021;45.640;11.302;2022-12-18T13:26:54;13.93;;;11.15;;
40314;SDS011;26021;45.640;11.302;2022-12-18T13:32:23;13.05;;;11.18;;
40314;SDS011;26021;45.640;11.302;2022-12-18T13:37:53;13.77;;;11.40;;
40314;SDS011;26021;45.640;11.302;2022-12-18T13:43:15;14.02;;;11.52;;
40314;SDS011;26021;45.640;11.302;2022-12-18T13:49:05;13.60;;;11.00;;
40314;SDS011;26021;45.640;11.302;2022-12-18T13:51:50;13.82;;;11.60;;
40314;SDS011;26021;45.640;11.302;2022-12-18T13:56:48;15.20;;;12.65;;
40314;SDS011;26021;45.640;11.302;2022-12-18T14:01:54;15.23;;;12.70;;
40314;SDS011;26021;45.640;11.302;2022-12-18T14:04:28;15.73;;;13.23;;
40314;SDS011;26021;45.640;11.302;2022-12-18T14:07:01;19.35;;;12.68;;
40314;SDS011;26021;45.640;11.302;2022-12-18T14:09:31;18.00;;;13.98;;
40314;SDS011;26021;45.640;11.302;2022-12-18T14:12:00;17.90;;;14.73;;
40314;SDS011;26021;45.640;11.302;2022-12-18T14:14:49;17.85;;;14.80;;
40314;SDS011;26021;45.640;11.302;2022-12-18T14:17:17;19.90;;;15.88;;
40314;SDS011;26021;45.640;11.302;2022-12-18T14:19:44;28.27;;;21.45;;
40314;SDS011;26021;45.640;11.302;2022-12-18T14:22:18;30.52;;;22.88;;
40314;SDS011;26021;45.640;11.302;2022-12-18T14:24:47;30.58;;;23.25;;
40314;SDS011;26021;45.640;11.302;2022-12-18T14:27:29;38.13;;;25.15;;
40314;SDS011;26021;45.640;11.302;2022-12-18T14:29:54;41.42;;;27.48;;
40314;SDS011;26021;45.640;11.302;2022-12-18T14:32:20;37.60;;;28.25;;
40314;SDS011;26021;45.640;11.302;2022-12-18T14:34:49;40.55;;;29.42;;
40314;SDS011;26021;45.640;11.302;2022-12-18T14:37:18;69.13;;;45.38;;
40314;SDS011;26021;45.640;11.302;2022-12-18T14:39:56;48.08;;;33.45;;
40314;SDS011;26021;45.640;11.302;2022-12-18T14:42:27;48.70;;;33.60;;
40314;SDS011;26021;45.640;11.302;2022-12-18T14:47:56;54.97;;;37.15;;
40314;SDS011;26021;45.640;11.302;2022-12-18T14:50:22;43.63;;;30.67;;
40314;SDS011;26021;45.640;11.302;2022-12-18T14:52:47;40.85;;;29.27;;
40314;SDS011;26021;45.640;11.302;2022-12-18T14:55:16;29.13;;;22.23;;
40314;SDS011;26021;45.640;11.302;2022-12-18T14:57:43;28.67;;;22.80;;
40314;SDS011;26021;45.640;11.302;2022-12-18T15:00:16;37.10;;;26.08;;
40314;SDS011;26021;45.640;11.302;2022-12-18T15:02:44;33.40;;;25.48;;
40314;SDS011;26021;45.640;11.302;2022-12-18T15:07:41;25.10;;;19.23;;
40314;SDS011;26021;45.640;11.302;2022-12-18T15:12:41;25.88;;;18.80;;
40314;SDS011;26021;45.640;11.302;2022-12-18T15:23:27;29.75;;;20.02;;
40314;SDS011;26021;45.640;11.302;2022-12-18T15:25:57;30.50;;;20.70;;
40314;SDS011;26021;45.640;11.302;2022-12-18T15:28:39;27.58;;;20.40;;
40314;SDS011;26021;45.640;11.302;2022-12-18T15:31:33;23.92;;;18.58;;
40314;SDS011;26021;45.640;11.302;2022-12-18T15:34:13;22.65;;;19.05;;
40314;SDS011;26021;45.640;11.302;2022-12-18T15:36:45;27.05;;;19.67;;
40314;SDS011;26021;45.640;11.302;2022-12-18T15:39:11;39.22;;;26.08;;
40314;SDS011;26021;45.640;11.302;2022-12-18T15:41:38;59.03;;;34.65;;
40314;SDS011;26021;45.640;11.302;2022-12-18T15:44:16;78.72;;;42.38;;
40314;SDS011;26021;45.640;11.302;2022-12-18T15:46:47;62.28;;;35.55;;
40314;SDS011;26021;45.640;11.302;2022-12-18T15:49:13;38.75;;;30.42;;
40314;SDS011;26021;45.640;11.302;2022-12-18T15:51:38;37.63;;;26.48;;
40314;SDS011;26021;45.640;11.302;2022-12-18T15:54:05;34.25;;;25.38;;
40314;SDS011;26021;45.640;11.302;2022-12-18T15:56:34;31.58;;;24.10;;
40314;SDS011;26021;45.640;11.302;2022-12-18T15:59:19;26.60;;;22.45;;
40314;SDS011;26021;45.640;11.302;2022-12-18T16:01:46;27.42;;;21.33;;
40314;SDS011;26021;45.640;11.302;2022-12-18T16:04:14;36.63;;;26.85;;
40314;SDS011;26021;45.640;11.302;2022-12-18T16:06:42;38.38;;;27.23;;
40314;SDS011;26021;45.640;11.302;2022-12-18T16:09:08;47.90;;;31.45;;
40314;SDS011;26021;45.640;11.302;2022-12-18T16:11:34;46.35;;;31.58;;
40314;SDS011;26021;45.640;11.302;2022-12-18T16:16:36;46.78;;;30.73;;
40314;SDS011;26021;45.640;11.302;2022-12-18T16:19:01;48.88;;;32.75;;
40314;SDS011;26021;45.640;11.302;2022-12-18T16:21:26;37.58;;;28.27;;
40314;SDS011;26021;45.640;11.302;2022-12-18T16:23:52;37.25;;;27.58;;
40314;SDS011;26021;45.640;11.302;2022-12-18T16:26:17;33.40;;;23.80;;
40314;SDS011;26021;45.640;11.302;2022-12-18T16:28:43;26.60;;;20.85;;
40314;SDS011;26021;45.640;11.302;2022-12-18T16:31:08;34.20;;;24.92;;
40314;SDS011;26021;45.640;11.302;2022-12-18T16:33:34;32.10;;;24.23;;
40314;SDS011;26021;45.640;11.302;2022-12-18T16:35:59;31.23;;;24.65;;
40314;SDS011;26021;45.640;11.302;2022-12-18T16:38:25;36.97;;;27.77;;
40314;SDS011;26021;45.640;11.302;2022-12-18T16:40:50;36.05;;;27.40;;
40314;SDS011;26021;45.640;11.302;2022-12-18T16:43:34;37.40;;;29.33;;
40314;SDS011;26021;45.640;11.302;2022-12-18T16:46:00;33.30;;;28.05;;
40314;SDS011;26021;45.640;11.302;2022-12-18T16:48:25;42.25;;;32.25;;
40314;SDS011;26021;45.640;11.302;2022-12-18T16:50:53;46.13;;;32.75;;
40314;SDS011;26021;45.640;11.302;2022-12-18T16:53:25;45.00;;;31.52;;
40314;SDS011;26021;45.640;11.302;2022-12-18T16:55:54;48.53;;;34.10;;
40314;SDS011;26021;45.640;11.302;2022-12-18T16:58:20;45.78;;;32.53;;
40314;SDS011;26021;45.640;11.302;2022-12-18T17:00:46;43.30;;;30.83;;